createdAt,value
2018-11-07T00:01:10.158Z,13.63
2018-11-07T00:03:40.043Z,17.20
2018-11-07T00:06:25.550Z,18.60
2018-11-07T00:09:00.171Z,15.10
2018-11-07T00:11:37.271Z,14.67
2018-11-07T00:14:06.315Z,16.73
2018-11-07T00:16:35.234Z,16.63
2018-11-07T00:19:14.890Z,14.93
2018-11-07T00:21:44.274Z,15.00
2018-11-07T00:24:13.133Z,14.10
2018-11-07T00:26:42.036Z,16.27
2018-11-07T00:32:15.631Z,15.43
2018-11-07T00:34:44.550Z,15.70
2018-11-07T00:37:18.382Z,14.43
2018-11-07T00:39:47.292Z,14.20
2018-11-07T00:42:40.798Z,15.47
2018-11-07T00:45:11.464Z,14.83
2018-11-07T00:47:41.552Z,15.87
2018-11-07T00:50:13.190Z,14.47
2018-11-07T00:52:42.635Z,15.63
2018-11-07T01:00:59.118Z,13.13
2018-11-07T01:03:31.745Z,14.67
2018-11-07T01:06:04.803Z,14.03
2018-11-07T01:11:36.734Z,12.30
2018-11-07T01:14:06.798Z,12.20
2018-11-07T01:16:35.874Z,12.13
2018-11-07T01:19:11.477Z,12.40
2018-11-07T01:21:42.480Z,12.93
2018-11-07T01:24:11.407Z,11.57
2018-11-07T01:26:53.560Z,12.27
2018-11-07T01:29:25.592Z,13.03
2018-11-07T01:31:54.597Z,13.10
2018-11-07T01:34:28.304Z,10.87
2018-11-07T01:36:58.189Z,14.17
2018-11-07T01:39:39.493Z,11.93
2018-11-07T01:42:20.103Z,10.80
2018-11-07T01:44:55.096Z,11.33
2018-11-07T01:47:23.991Z,11.87
2018-11-07T01:49:52.880Z,14.43
2018-11-07T01:52:21.744Z,11.03
2018-11-07T01:54:56.319Z,12.83
2018-11-07T01:57:38.105Z,11.27
2018-11-07T02:00:09.121Z,12.67
2018-11-07T02:02:38.026Z,11.70
2018-11-07T02:05:06.988Z,13.20
2018-11-07T02:07:35.928Z,11.93
2018-11-07T02:10:09.693Z,13.13
2018-11-07T02:12:46.483Z,12.63
2018-11-07T02:15:15.388Z,13.23
2018-11-07T02:17:44.257Z,12.77
2018-11-07T02:20:18.945Z,11.50
2018-11-07T02:22:47.832Z,12.80
2018-11-07T02:25:16.746Z,11.33
2018-11-07T02:27:45.642Z,14.30
2018-11-07T02:30:16.612Z,10.13
2018-11-07T02:32:45.752Z,11.10
2018-11-07T02:35:14.639Z,10.70
2018-11-07T02:37:48.515Z,13.33
2018-11-07T02:40:17.916Z,12.20
2018-11-07T02:42:46.917Z,11.53
2018-11-07T02:45:18.996Z,11.87
2018-11-07T02:47:52.689Z,11.80
2018-11-07T02:50:21.613Z,12.00
2018-11-07T02:53:03.759Z,12.53
2018-11-07T02:55:44.987Z,11.83
2018-11-07T02:58:13.967Z,12.27
2018-11-07T03:00:46.117Z,13.23
2018-11-07T03:03:24.549Z,11.53
2018-11-07T03:05:57.902Z,10.77
2018-11-07T03:08:32.793Z,10.50
2018-11-07T03:13:58.204Z,13.37
2018-11-07T03:16:35.452Z,14.00
2018-11-07T03:19:04.696Z,13.17
2018-11-07T03:21:37.209Z,12.27
2018-11-07T03:24:13.980Z,10.23
2018-11-07T03:26:42.864Z,10.43
2018-11-07T03:29:11.818Z,11.63
2018-11-07T03:31:40.729Z,14.33
2018-11-07T03:34:34.016Z,11.67
2018-11-07T03:37:08.384Z,11.53
2018-11-07T03:39:38.335Z,12.10
2018-11-07T03:42:15.383Z,11.57
2018-11-07T03:44:44.369Z,13.27
2018-11-07T03:47:13.252Z,12.13
2018-11-07T03:49:42.142Z,11.30
2018-11-07T03:52:11.053Z,9.43
2018-11-07T03:54:39.896Z,12.77
2018-11-07T04:00:09.622Z,10.60
2018-11-07T04:02:38.946Z,9.57
2018-11-07T04:05:09.302Z,10.43
2018-11-07T04:07:41.511Z,10.57
2018-11-07T04:10:10.438Z,8.17
2018-11-07T04:12:39.365Z,11.20
2018-11-07T04:15:08.831Z,10.17
2018-11-07T04:17:40.590Z,10.43
2018-11-07T04:20:21.378Z,10.03
2018-11-07T04:22:50.216Z,10.17
2018-11-07T04:25:19.089Z,11.23
2018-11-07T04:27:47.980Z,9.80
2018-11-07T04:30:29.754Z,10.07
2018-11-07T04:32:58.720Z,8.83
2018-11-07T04:35:27.648Z,11.23
2018-11-07T04:38:02.138Z,8.83
2018-11-07T04:40:31.513Z,9.43
2018-11-07T04:43:03.466Z,7.77
2018-11-07T04:45:36.002Z,10.20
2018-11-07T04:48:06.280Z,7.60
2018-11-07T04:50:48.206Z,13.87
2018-11-07T04:53:26.899Z,8.40
2018-11-07T04:55:56.819Z,8.10
2018-11-07T04:58:37.064Z,9.27
2018-11-07T05:01:12.896Z,8.90
2018-11-07T05:03:43.931Z,7.83
2018-11-07T05:06:14.924Z,7.37
2018-11-07T05:08:55.971Z,7.67
2018-11-07T05:11:28.899Z,7.80
2018-11-07T05:14:02.572Z,9.40
2018-11-07T05:16:45.784Z,8.27
2018-11-07T05:19:26.717Z,8.20
2018-11-07T05:22:03.760Z,9.53
2018-11-07T05:24:33.687Z,7.90
2018-11-07T05:27:26.015Z,7.80
2018-11-07T05:29:55.976Z,6.73
2018-11-07T05:32:38.574Z,8.43
2018-11-07T05:35:10.892Z,7.80
2018-11-07T05:37:45.982Z,7.80
2018-11-07T05:40:16.995Z,6.37
2018-11-07T05:42:56.729Z,7.27
2018-11-07T05:45:32.611Z,8.00
2018-11-07T05:48:01.592Z,7.00
2018-11-07T05:50:31.519Z,8.10
2018-11-07T05:53:00.493Z,9.60
2018-11-07T05:55:36.619Z,8.00
2018-11-07T05:58:11.273Z,7.17
2018-11-07T06:00:43.845Z,10.77
2018-11-07T06:03:28.878Z,6.83
2018-11-07T06:05:57.800Z,7.27
2018-11-07T06:08:26.716Z,6.03
2018-11-07T06:10:55.656Z,6.97
2018-11-07T06:13:31.999Z,7.47
2018-11-07T06:16:09.115Z,6.97
2018-11-07T06:18:38.009Z,6.00
2018-11-07T06:21:08.341Z,8.57
2018-11-07T06:23:51.496Z,7.50
2018-11-07T06:26:36.655Z,6.33
2018-11-07T06:29:08.945Z,6.93
2018-11-07T06:31:41.898Z,7.00
2018-11-07T06:34:11.907Z,5.77
2018-11-07T06:36:46.375Z,6.60
2018-11-07T06:39:21.018Z,7.30
2018-11-07T06:41:59.547Z,6.33
2018-11-07T06:44:28.620Z,5.77
2018-11-07T06:46:59.429Z,5.90
2018-11-07T06:49:45.406Z,6.53
2018-11-07T06:52:17.597Z,6.23
2018-11-07T06:55:01.103Z,6.63
2018-11-07T07:00:34.015Z,6.13
2018-11-07T07:03:05.798Z,6.77
2018-11-07T07:05:35.726Z,6.63
2018-11-07T07:08:20.739Z,7.03
2018-11-07T07:10:54.782Z,6.93
2018-11-07T07:13:25.835Z,6.50
2018-11-07T07:15:55.818Z,5.67
2018-11-07T07:18:24.740Z,5.30
2018-11-07T07:20:57.226Z,8.13
2018-11-07T07:23:43.093Z,4.33
2018-11-07T07:26:28.899Z,6.30
2018-11-07T07:32:04.461Z,7.43
2018-11-07T07:34:33.432Z,4.60
2018-11-07T07:37:15.445Z,4.07
2018-11-07T07:39:49.250Z,3.37
2018-11-07T07:42:20.316Z,5.73
2018-11-07T07:44:51.244Z,5.03
2018-11-07T07:47:26.240Z,4.57
2018-11-07T07:50:07.117Z,7.07
2018-11-07T07:52:41.841Z,5.93
2018-11-07T07:55:14.635Z,4.53
2018-11-07T07:57:53.430Z,6.07
2018-11-07T08:00:41.807Z,5.93
2018-11-07T08:03:11.893Z,4.90
2018-11-07T08:05:55.540Z,6.43
2018-11-07T08:08:43.697Z,4.47
2018-11-07T08:11:16.685Z,5.63
2018-11-07T08:13:58.434Z,3.93
2018-11-07T08:16:34.876Z,3.77
2018-11-07T08:24:57.571Z,4.63
2018-11-07T08:27:30.850Z,5.87
2018-11-07T08:35:53.341Z,4.90
2018-11-07T08:38:22.360Z,6.47
2018-11-07T08:40:51.274Z,4.43
2018-11-07T08:46:25.625Z,3.53
2018-11-07T08:48:58.111Z,3.53
2018-11-07T08:51:30.797Z,4.10
2018-11-07T08:54:05.576Z,3.93
2018-11-07T08:56:37.586Z,5.47
2018-11-07T08:59:07.677Z,7.80
2018-11-07T09:01:48.492Z,7.10
2018-11-07T09:04:29.305Z,8.10
2018-11-07T09:07:01.352Z,3.37
2018-11-07T09:09:31.396Z,5.80
2018-11-07T09:12:03.795Z,4.90
2018-11-07T09:14:32.734Z,5.07
2018-11-07T09:17:07.021Z,3.60
2018-11-07T09:19:39.808Z,3.90
2018-11-07T09:22:08.711Z,3.90
2018-11-07T09:24:49.569Z,4.13
2018-11-07T09:27:18.449Z,6.63
2018-11-07T09:29:47.313Z,5.27
2018-11-07T09:32:16.205Z,3.73
2018-11-07T09:34:46.662Z,4.83
2018-11-07T09:37:15.579Z,5.30
2018-11-07T09:39:44.495Z,4.53
2018-11-07T09:42:24.661Z,3.83
2018-11-07T09:45:12.090Z,4.00
2018-11-07T09:47:41.962Z,4.43
2018-11-07T09:50:13.685Z,3.87
2018-11-07T09:52:44.029Z,5.17
2018-11-07T09:58:09.106Z,4.30
2018-11-07T10:00:42.784Z,2.73
2018-11-07T10:03:19.465Z,3.63
2018-11-07T10:05:59.488Z,6.40
2018-11-07T10:08:47.015Z,5.40
2018-11-07T10:11:39.620Z,3.63
2018-11-07T10:14:12.410Z,4.87
2018-11-07T10:16:42.358Z,2.03
2018-11-07T10:19:13.305Z,2.33
2018-11-07T10:21:43.269Z,3.53
2018-11-07T10:24:31.755Z,4.70
2018-11-07T10:27:00.779Z,5.27
2018-11-07T10:29:29.774Z,3.43
2018-11-07T10:31:58.452Z,6.60
2018-11-07T10:34:27.382Z,5.30
2018-11-07T10:36:56.323Z,3.30
2018-11-07T10:39:35.390Z,2.10
2018-11-07T10:42:04.269Z,3.23
2018-11-07T10:44:33.193Z,4.33
2018-11-07T10:47:02.123Z,2.93
2018-11-07T10:49:31.026Z,3.77
2018-11-07T10:52:18.618Z,3.93
2018-11-07T10:54:47.476Z,1.97
2018-11-07T10:57:16.360Z,3.30
2018-11-07T10:59:45.222Z,4.50
2018-11-07T11:02:26.808Z,4.00
2018-11-07T11:04:57.785Z,5.30
2018-11-07T11:07:40.101Z,4.13
2018-11-07T11:10:09.068Z,4.63
2018-11-07T11:12:37.917Z,3.77
2018-11-07T11:15:06.836Z,4.03
2018-11-07T11:17:39.259Z,3.87
2018-11-07T11:20:15.756Z,4.43
2018-11-07T11:22:44.630Z,3.60
2018-11-07T11:25:13.568Z,4.17
2018-11-07T11:27:42.438Z,2.20
2018-11-07T11:30:11.302Z,2.10
2018-11-07T11:32:40.393Z,3.50
2018-11-07T11:35:14.060Z,2.03
2018-11-07T11:37:51.105Z,2.87
2018-11-07T11:40:23.709Z,2.57
2018-11-07T11:42:52.559Z,2.60
2018-11-07T11:45:45.515Z,2.97
2018-11-07T11:48:27.100Z,4.13
2018-11-07T11:51:01.434Z,3.57
2018-11-07T11:53:34.438Z,4.43
2018-11-07T11:56:03.311Z,2.33
2018-11-07T11:58:32.227Z,2.20
2018-11-07T12:01:01.110Z,2.67
2018-11-07T12:03:30.145Z,1.73
2018-11-07T12:05:59.653Z,5.40
2018-11-07T12:08:29.189Z,2.57
2018-11-07T12:10:58.033Z,3.73
2018-11-07T12:13:33.094Z,3.20
2018-11-07T12:16:01.946Z,4.13
2018-11-07T12:18:30.812Z,4.97
2018-11-07T12:21:07.002Z,3.87
2018-11-07T12:23:35.944Z,4.63
2018-11-07T12:26:04.907Z,3.97
2018-11-07T12:28:33.824Z,4.90
2018-11-07T12:31:02.724Z,3.30
2018-11-07T12:33:38.919Z,4.83
2018-11-07T12:36:07.981Z,5.33
2018-11-07T12:38:37.927Z,4.17
2018-11-07T12:41:12.633Z,5.87
2018-11-07T12:43:48.510Z,3.77
2018-11-07T12:46:30.692Z,4.13
2018-11-07T12:49:12.508Z,5.63
2018-11-07T12:52:00.500Z,6.90
2018-11-07T12:54:29.384Z,4.50
2018-11-07T12:56:58.300Z,3.77
2018-11-07T12:59:30.268Z,3.07
2018-11-07T13:01:59.143Z,3.27
2018-11-07T13:04:28.093Z,2.53
2018-11-07T13:09:57.481Z,3.33
2018-11-07T13:12:26.402Z,2.80
2018-11-07T13:14:59.230Z,3.67
2018-11-07T13:17:42.864Z,2.73
2018-11-07T13:20:14.061Z,2.23
2018-11-07T13:22:43.942Z,3.93
2018-11-07T13:25:16.021Z,4.30
2018-11-07T13:27:51.508Z,3.33
2018-11-07T13:30:26.561Z,2.90
2018-11-07T13:33:01.417Z,2.67
2018-11-07T13:35:34.633Z,2.63
2018-11-07T13:38:05.137Z,1.90
2018-11-07T13:40:35.465Z,1.90
2018-11-07T13:43:04.898Z,2.40
2018-11-07T13:45:37.492Z,6.30
2018-11-07T13:48:19.139Z,5.77
2018-11-07T13:50:48.062Z,3.70
2018-11-07T13:53:20.593Z,2.50
2018-11-07T13:55:54.408Z,4.40
2018-11-07T14:01:20.779Z,3.37
2018-11-07T14:03:55.428Z,3.67
2018-11-07T14:12:13.492Z,3.10
2018-11-07T14:14:53.751Z,3.27
2018-11-07T14:17:22.724Z,4.80
2018-11-07T14:20:02.569Z,4.47
2018-11-07T14:22:31.452Z,2.83
2018-11-07T14:27:54.416Z,3.80
2018-11-07T14:30:23.204Z,3.63
2018-11-07T14:33:10.314Z,2.63
2018-11-07T14:35:57.037Z,2.07
2018-11-07T14:38:48.857Z,5.13
2018-11-07T14:41:18.766Z,3.40
2018-11-07T14:43:53.853Z,3.70
2018-11-07T14:46:28.359Z,3.23
2018-11-07T14:49:12.428Z,1.60
2018-11-07T14:51:42.447Z,6.07
2018-11-07T14:54:33.935Z,3.57
2018-11-07T14:57:17.349Z,1.80
2018-11-07T14:59:47.279Z,3.13
2018-11-07T15:05:16.723Z,3.77
2018-11-07T15:07:45.892Z,5.03
2018-11-07T15:10:20.557Z,5.60
2018-11-07T15:15:50.145Z,3.47
2018-11-07T15:21:17.931Z,3.27
2018-11-07T15:23:58.991Z,3.90
2018-11-07T15:29:22.274Z,2.73
2018-11-07T15:31:57.894Z,3.03
2018-11-07T15:34:30.744Z,4.67
2018-11-07T15:37:09.596Z,9.67
2018-11-07T15:39:46.652Z,3.77
2018-11-07T15:42:15.604Z,4.33
2018-11-07T15:44:57.523Z,6.03
2018-11-07T15:47:30.327Z,6.03
2018-11-07T15:50:05.498Z,8.27
2018-11-07T15:52:42.224Z,8.50
2018-11-07T15:55:25.246Z,6.77
2018-11-07T15:58:06.322Z,9.67
2018-11-07T16:00:41.739Z,9.30
2018-11-07T16:03:25.618Z,13.73
2018-11-07T16:05:54.765Z,15.30
2018-11-07T16:08:31.788Z,14.63
2018-11-07T16:11:02.886Z,12.57
2018-11-07T16:13:37.867Z,9.70
2018-11-07T16:16:07.061Z,10.33
2018-11-07T16:18:40.232Z,11.13
2018-11-07T16:21:15.042Z,10.13
2018-11-07T16:23:43.901Z,6.60
2018-11-07T16:26:34.975Z,8.83
2018-11-07T16:29:11.011Z,9.00
2018-11-07T16:34:34.189Z,11.13
2018-11-07T16:37:03.122Z,7.50
2018-11-07T16:39:31.992Z,6.50
2018-11-07T16:42:01.082Z,6.67
2018-11-07T16:44:35.948Z,6.10
2018-11-07T16:47:05.028Z,10.43
2018-11-07T16:49:39.235Z,8.03
2018-11-07T16:52:22.172Z,7.60
2018-11-07T16:54:53.108Z,5.40
2018-11-07T16:57:22.117Z,6.03
2018-11-07T16:59:55.295Z,5.03
2018-11-07T17:02:25.341Z,4.07
2018-11-07T17:04:54.298Z,8.20
2018-11-07T17:07:24.312Z,5.63
2018-11-07T17:10:02.710Z,4.23
2018-11-07T17:12:32.618Z,6.93
2018-11-07T17:15:13.922Z,7.30
2018-11-07T17:17:42.890Z,5.73
2018-11-07T17:20:14.038Z,6.33
2018-11-07T17:22:45.046Z,6.60
2018-11-07T17:25:26.038Z,7.57
2018-11-07T17:27:55.468Z,7.57
2018-11-07T17:30:24.899Z,7.13
2018-11-07T17:32:59.933Z,6.50
2018-11-07T17:35:33.001Z,9.23
2018-11-07T17:38:02.569Z,5.53
2018-11-07T17:40:36.088Z,6.63
2018-11-07T17:46:03.243Z,6.20
2018-11-07T17:48:39.591Z,7.63
2018-11-07T17:51:09.936Z,7.40
2018-11-07T17:53:39.482Z,9.83
2018-11-07T17:56:14.792Z,6.80
2018-11-07T17:58:48.226Z,7.20
2018-11-07T18:01:21.880Z,6.53
2018-11-07T18:03:57.728Z,6.80
2018-11-07T18:06:26.632Z,7.00
2018-11-07T18:08:57.586Z,4.83
2018-11-07T18:11:45.119Z,6.87
2018-11-07T18:14:14.048Z,6.23
2018-11-07T18:16:43.002Z,6.23
2018-11-07T18:19:16.576Z,6.83
2018-11-07T18:21:46.547Z,5.13
2018-11-07T18:24:15.405Z,6.93
2018-11-07T18:26:48.296Z,6.97
2018-11-07T18:29:30.368Z,7.97
2018-11-07T18:32:06.920Z,9.40
2018-11-07T18:34:36.760Z,10.03
2018-11-07T18:37:06.688Z,15.77
2018-11-07T18:39:36.900Z,11.10
2018-11-07T18:42:17.966Z,8.23
2018-11-07T18:44:50.906Z,4.50
2018-11-07T18:47:23.908Z,6.90
2018-11-07T18:49:57.678Z,9.10
2018-11-07T18:52:30.777Z,8.13
2018-11-07T18:54:59.780Z,7.70
2018-11-07T18:57:40.517Z,7.53
2018-11-07T19:00:21.447Z,5.17
2018-11-07T19:02:54.838Z,5.07
2018-11-07T19:05:23.765Z,5.03
2018-11-07T19:07:59.584Z,4.50
2018-11-07T19:10:34.283Z,2.90
2018-11-07T19:13:04.275Z,2.57
2018-11-07T19:15:37.852Z,6.10
2018-11-07T19:18:13.518Z,4.23
2018-11-07T19:20:55.826Z,2.57
2018-11-07T19:23:29.750Z,2.63
2018-11-07T19:25:58.655Z,4.63
2018-11-07T19:28:40.726Z,2.20
2018-11-07T19:31:13.409Z,3.03
2018-11-07T19:33:42.316Z,3.90
2018-11-07T19:36:13.238Z,4.17
2018-11-07T19:38:42.243Z,3.07
2018-11-07T19:41:11.273Z,2.93
2018-11-07T19:43:46.820Z,3.27
2018-11-07T19:46:30.011Z,4.60
2018-11-07T19:49:07.013Z,3.37
2018-11-07T19:51:39.172Z,2.70
2018-11-07T19:54:08.244Z,2.43
2018-11-07T19:56:37.193Z,3.60
2018-11-07T19:59:11.384Z,3.37
2018-11-07T20:01:40.358Z,2.67
2018-11-07T20:04:12.610Z,4.43
2018-11-07T20:06:47.056Z,3.07
2018-11-07T20:09:23.897Z,2.90
2018-11-07T20:11:57.318Z,7.13
2018-11-07T20:14:32.722Z,2.97
2018-11-07T20:17:09.812Z,3.03
2018-11-07T20:19:43.301Z,4.83
2018-11-07T20:22:17.013Z,3.63
2018-11-07T20:24:47.745Z,2.70
2018-11-07T20:27:27.343Z,4.30
2018-11-07T20:30:01.130Z,3.57
2018-11-07T20:32:33.636Z,4.53
2018-11-07T20:35:14.036Z,6.03
2018-11-07T20:38:00.887Z,3.27
2018-11-07T20:40:37.054Z,3.17
2018-11-07T20:43:06.480Z,3.90
2018-11-07T20:45:37.437Z,3.80
2018-11-07T20:48:08.390Z,2.37
2018-11-07T20:53:44.176Z,2.60
2018-11-07T20:56:14.236Z,2.93
2018-11-07T20:58:45.143Z,4.73
2018-11-07T21:01:16.104Z,3.83
2018-11-07T21:03:45.127Z,4.13
2018-11-07T21:06:19.883Z,4.10
2018-11-07T21:09:01.761Z,3.93
2018-11-07T21:11:38.945Z,2.93
2018-11-07T21:14:08.975Z,3.77
2018-11-07T21:16:46.059Z,4.30
2018-11-07T21:19:20.233Z,4.93
2018-11-07T21:22:07.525Z,2.47
2018-11-07T21:24:36.584Z,3.80
2018-11-07T21:27:05.641Z,4.10
2018-11-07T21:29:37.729Z,5.20
2018-11-07T21:32:08.686Z,3.60
2018-11-07T21:34:37.616Z,3.87
2018-11-07T21:37:09.639Z,3.03
2018-11-07T21:39:40.553Z,3.57
2018-11-07T21:42:09.708Z,4.33
2018-11-07T21:44:42.384Z,3.30
2018-11-07T21:47:17.472Z,2.77
2018-11-07T21:49:54.118Z,5.70
2018-11-07T21:52:25.004Z,3.10
2018-11-07T21:55:01.504Z,3.50
2018-11-07T21:57:37.971Z,4.77
2018-11-07T22:00:12.992Z,4.73
2018-11-07T22:02:42.157Z,4.17
2018-11-07T22:05:19.102Z,3.80
2018-11-07T22:08:00.299Z,4.67
2018-11-07T22:10:31.449Z,4.03
2018-11-07T22:13:04.196Z,4.87
2018-11-07T22:15:38.739Z,5.87
2018-11-07T22:21:04.943Z,3.23
2018-11-07T22:23:41.172Z,3.87
2018-11-07T22:29:03.512Z,3.80
2018-11-07T22:31:45.140Z,4.07
2018-11-07T22:34:14.174Z,2.90
2018-11-07T22:37:01.243Z,2.97
2018-11-07T22:39:52.672Z,5.00
2018-11-07T22:42:33.486Z,3.87
2018-11-07T22:48:06.236Z,3.37
2018-11-07T22:50:39.668Z,3.33
2018-11-07T22:53:18.944Z,3.63
2018-11-07T22:56:01.859Z,4.63
2018-11-07T22:58:31.860Z,3.07
2018-11-07T23:01:13.189Z,3.57
2018-11-07T23:03:42.182Z,2.93
2018-11-07T23:06:17.778Z,2.83
2018-11-07T23:09:11.452Z,3.83
2018-11-07T23:11:47.733Z,5.00
2018-11-07T23:14:16.762Z,3.17
2018-11-07T23:16:52.029Z,4.87
2018-11-07T23:19:23.065Z,3.63
2018-11-07T23:27:39.645Z,5.43
2018-11-07T23:30:09.144Z,4.97
2018-11-07T23:32:38.133Z,5.17
2018-11-07T23:38:02.232Z,3.17
2018-11-07T23:40:31.591Z,2.87
2018-11-07T23:43:00.686Z,4.40
2018-11-07T23:45:29.620Z,5.27
2018-11-07T23:47:58.516Z,2.30
2018-11-07T23:50:31.410Z,3.50
2018-11-07T23:53:16.961Z,2.40
2018-11-07T23:55:54.625Z,4.40
